createdAt,value
2019-06-26T00:01:08.632Z,101704.72
2019-06-26T00:03:39.848Z,101701.50
2019-06-26T00:06:10.086Z,101701.00
2019-06-26T00:08:40.224Z,101696.42
2019-06-26T00:11:10.372Z,101696.33
2019-06-26T00:13:40.572Z,101686.80
2019-06-26T00:16:10.707Z,101683.33
2019-06-26T00:18:40.829Z,101685.05
2019-06-26T00:21:10.961Z,101683.69
2019-06-26T00:23:41.108Z,101685.94
2019-06-26T00:26:11.303Z,101691.75
2019-06-26T00:28:41.440Z,101685.31
2019-06-26T00:31:12.245Z,101673.70
2019-06-26T00:33:43.657Z,101675.66
2019-06-26T00:36:13.779Z,101668.00
2019-06-26T00:38:44.020Z,101665.64
2019-06-26T00:41:14.212Z,101660.70
2019-06-26T00:43:44.351Z,101665.05
2019-06-26T00:46:14.497Z,101665.64
2019-06-26T00:48:45.152Z,101657.84
2019-06-26T00:51:15.284Z,101667.37
2019-06-26T00:53:45.407Z,101670.22
2019-06-26T00:56:15.540Z,101666.64
2019-06-26T00:58:45.665Z,101673.30
2019-06-26T01:01:16.083Z,101672.70
2019-06-26T01:03:47.448Z,101668.63
2019-06-26T01:06:35.632Z,101672.58
2019-06-26T01:09:07.254Z,101678.02
2019-06-26T01:11:37.449Z,101668.00
2019-06-26T01:14:07.575Z,101666.14
2019-06-26T01:16:37.694Z,101666.14
2019-06-26T01:19:07.816Z,101657.42
2019-06-26T01:21:37.941Z,101635.14
2019-06-26T01:24:08.074Z,101638.25
2019-06-26T01:26:38.214Z,101643.79
2019-06-26T01:29:08.355Z,101655.00
2019-06-26T01:31:38.484Z,101646.70
2019-06-26T01:34:08.647Z,101642.03
2019-06-26T01:36:39.863Z,101642.77
2019-06-26T01:39:10.132Z,101652.02
2019-06-26T01:41:40.244Z,101643.59
2019-06-26T01:44:15.378Z,101646.05
2019-06-26T01:46:42.182Z,101646.41
2019-06-26T01:49:12.343Z,101653.44
2019-06-26T01:51:42.464Z,101649.12
2019-06-26T01:54:12.640Z,101644.69
2019-06-26T01:56:42.765Z,101646.77
2019-06-26T01:59:12.897Z,101640.61
2019-06-26T02:01:43.062Z,101636.53
2019-06-26T02:04:15.559Z,101640.61
2019-06-26T02:06:45.030Z,101640.61
2019-06-26T02:09:15.179Z,101645.05
2019-06-26T02:11:45.301Z,101641.34
2019-06-26T02:14:29.900Z,101627.51
2019-06-26T02:16:47.253Z,101620.34
2019-06-26T02:19:19.188Z,101614.31
2019-06-26T02:21:50.308Z,101617.89
2019-06-26T02:24:20.497Z,101608.51
2019-06-26T02:26:50.635Z,101614.31
2019-06-26T02:29:20.775Z,101618.25
2019-06-26T02:31:50.912Z,101623.06
2019-06-26T02:34:21.031Z,101617.63
2019-06-26T02:36:51.138Z,101619.48
2019-06-26T02:39:21.303Z,101609.47
2019-06-26T02:41:51.403Z,101610.96
2019-06-26T02:44:21.567Z,101598.27
2019-06-26T02:46:51.684Z,101593.23
2019-06-26T02:49:21.950Z,101600.62
2019-06-26T02:51:52.658Z,101610.86
2019-06-26T02:54:22.870Z,101616.03
2019-06-26T02:56:52.999Z,101609.23
2019-06-26T02:59:23.128Z,101603.44
2019-06-26T03:01:53.269Z,101598.72
2019-06-26T03:04:23.377Z,101600.94
2019-06-26T03:06:53.650Z,101602.94
2019-06-26T03:09:23.794Z,101602.94
2019-06-26T03:11:53.943Z,101591.83
2019-06-26T03:14:24.089Z,101581.72
2019-06-26T03:16:54.220Z,101577.67
2019-06-26T03:19:24.353Z,101585.44
2019-06-26T03:21:54.476Z,101586.39
2019-06-26T03:24:24.625Z,101587.48
2019-06-26T03:26:54.740Z,101583.00
2019-06-26T03:29:24.888Z,101582.50
2019-06-26T03:31:56.037Z,101588.17
2019-06-26T03:34:26.183Z,101575.07
2019-06-26T03:36:56.355Z,101572.34
2019-06-26T03:39:26.588Z,101565.19
2019-06-26T03:41:56.725Z,101566.05
2019-06-26T03:44:26.849Z,101549.87
2019-06-26T03:46:56.989Z,101545.79
2019-06-26T03:49:27.164Z,101540.98
2019-06-26T03:51:57.316Z,101532.23
2019-06-26T03:54:27.457Z,101538.21
2019-06-26T03:56:57.603Z,101530.64
2019-06-26T03:59:27.768Z,101534.45
2019-06-26T04:01:57.928Z,101535.63
2019-06-26T04:04:28.263Z,101533.73
2019-06-26T04:06:58.417Z,101531.00
2019-06-26T04:09:28.564Z,101520.34
2019-06-26T04:11:58.709Z,101524.92
2019-06-26T04:14:28.858Z,101525.92
2019-06-26T04:16:59.017Z,101524.06
2019-06-26T04:19:29.174Z,101522.11
2019-06-26T04:21:59.398Z,101526.19
2019-06-26T04:24:29.579Z,101519.25
2019-06-26T04:26:59.776Z,101519.89
2019-06-26T04:29:29.912Z,101510.73
2019-06-26T04:32:00.041Z,101503.94
2019-06-26T04:34:30.175Z,101508.88
2019-06-26T04:37:00.301Z,101498.85
2019-06-26T04:39:30.429Z,101493.69
2019-06-26T04:42:00.558Z,101493.30
2019-06-26T04:44:30.713Z,101498.22
2019-06-26T04:47:00.862Z,101489.28
2019-06-26T04:49:31.932Z,101497.53
2019-06-26T04:52:02.068Z,101504.91
2019-06-26T04:54:32.371Z,101499.92
2019-06-26T04:57:02.494Z,101502.86
2019-06-26T04:59:32.622Z,101502.39
2019-06-26T05:02:02.750Z,101498.89
2019-06-26T05:04:33.966Z,101499.75
2019-06-26T05:07:04.295Z,101499.15
2019-06-26T05:09:34.467Z,101502.59
2019-06-26T05:12:04.600Z,101505.89
2019-06-26T05:14:34.740Z,101506.84
2019-06-26T05:17:04.979Z,101360.36
2019-06-26T05:19:35.183Z,101522.25
2019-06-26T05:22:06.318Z,101525.47
2019-06-26T05:24:37.266Z,101521.30
2019-06-26T05:27:07.406Z,101524.95
2019-06-26T05:29:37.544Z,101521.86
2019-06-26T05:32:07.681Z,101522.86
2019-06-26T05:34:37.858Z,101531.11
2019-06-26T05:37:07.993Z,101528.89
2019-06-26T05:39:38.142Z,101519.14
2019-06-26T05:42:08.278Z,101511.48
2019-06-26T05:44:39.514Z,101497.79
2019-06-26T05:47:09.659Z,101481.76
2019-06-26T05:49:40.027Z,101475.45
2019-06-26T05:52:10.163Z,101472.45
2019-06-26T05:54:40.297Z,101466.52
2019-06-26T05:57:10.425Z,101477.34
2019-06-26T05:59:40.571Z,101475.93
2019-06-26T06:02:10.697Z,101475.91
2019-06-26T06:04:40.832Z,101468.94
2019-06-26T06:07:10.968Z,101464.37
2019-06-26T06:09:41.102Z,101460.94
2019-06-26T06:12:11.247Z,101460.27
2019-06-26T06:14:41.384Z,101468.38
2019-06-26T06:17:11.511Z,101480.42
2019-06-26T06:19:41.638Z,101470.33
2019-06-26T06:22:11.784Z,101470.04
2019-06-26T06:24:42.228Z,101467.96
2019-06-26T06:27:12.333Z,101463.59
2019-06-26T06:29:42.462Z,101463.20
2019-06-26T06:32:12.603Z,101455.53
2019-06-26T06:34:42.801Z,101458.25
2019-06-26T06:37:12.961Z,101458.11
2019-06-26T06:39:43.168Z,101442.89
2019-06-26T06:42:13.307Z,101444.00
2019-06-26T06:44:43.436Z,101451.02
2019-06-26T06:47:13.551Z,101448.87
2019-06-26T06:49:43.714Z,101452.12
2019-06-26T06:52:16.590Z,101437.70
2019-06-26T06:54:45.695Z,101431.67
2019-06-26T06:57:15.799Z,101431.33
2019-06-26T06:59:45.945Z,101420.13
2019-06-26T07:02:16.074Z,101424.21
2019-06-26T07:04:46.215Z,101413.97
2019-06-26T07:07:16.340Z,101414.42
2019-06-26T07:09:46.788Z,101413.11
2019-06-26T07:12:16.957Z,101415.33
2019-06-26T07:14:48.757Z,101407.23
2019-06-26T07:17:21.153Z,101407.30
2019-06-26T07:19:50.755Z,101400.30
2019-06-26T07:22:20.878Z,101401.22
2019-06-26T07:24:51.025Z,101397.13
2019-06-26T07:27:21.132Z,101388.41
2019-06-26T07:29:51.271Z,101392.41
2019-06-26T07:32:21.391Z,101389.48
2019-06-26T07:34:51.617Z,101403.27
2019-06-26T07:37:21.835Z,101411.70
2019-06-26T07:39:51.999Z,101406.41
2019-06-26T07:42:22.173Z,101408.25
2019-06-26T07:44:52.315Z,101414.52
2019-06-26T07:47:28.245Z,101416.71
2019-06-26T07:49:54.435Z,101409.80
2019-06-26T07:52:24.554Z,101404.69
2019-06-26T07:54:55.939Z,101403.68
2019-06-26T07:57:26.130Z,101411.20
2019-06-26T07:59:56.248Z,101419.75
2019-06-26T08:02:26.409Z,101412.30
2019-06-26T08:04:56.702Z,101406.94
2019-06-26T08:07:26.834Z,101409.36
2019-06-26T08:09:56.986Z,101406.28
2019-06-26T08:12:27.134Z,101409.56
2019-06-26T08:14:57.276Z,101408.25
2019-06-26T08:17:27.393Z,101413.43
2019-06-26T08:19:57.673Z,101401.33
2019-06-26T08:22:27.778Z,101389.20
2019-06-26T08:24:57.908Z,101393.25
2019-06-26T08:27:28.042Z,101393.95
2019-06-26T08:29:58.310Z,101401.73
2019-06-26T08:32:28.458Z,101404.36
2019-06-26T08:34:58.815Z,101414.44
2019-06-26T08:37:28.936Z,101411.75
2019-06-26T08:39:59.698Z,101403.55
2019-06-26T08:42:29.856Z,101413.00
2019-06-26T08:44:59.988Z,101412.02
2019-06-26T08:47:30.147Z,101398.12
2019-06-26T08:50:00.450Z,101395.47
2019-06-26T08:52:31.063Z,101397.39
2019-06-26T08:55:01.226Z,101399.10
2019-06-26T08:57:31.347Z,101397.33
2019-06-26T09:00:02.541Z,101396.79
2019-06-26T09:02:33.797Z,101397.20
2019-06-26T09:05:03.946Z,101398.05
2019-06-26T09:07:34.219Z,101393.23
2019-06-26T09:10:04.564Z,101392.59
2019-06-26T09:12:34.718Z,101396.05
2019-06-26T09:15:05.100Z,101389.48
2019-06-26T09:17:36.530Z,101381.31
2019-06-26T09:20:07.985Z,101388.17
2019-06-26T09:22:38.114Z,101383.53
2019-06-26T09:25:20.893Z,101372.50
2019-06-26T09:27:40.755Z,101368.55
2019-06-26T09:30:11.308Z,101365.41
2019-06-26T09:32:41.463Z,101374.68
2019-06-26T09:35:11.727Z,101366.09
2019-06-26T09:37:41.897Z,101357.52
2019-06-26T09:40:12.188Z,101353.07
2019-06-26T09:42:42.331Z,101350.80
2019-06-26T09:45:14.145Z,101357.16
2019-06-26T09:47:44.285Z,101361.30
2019-06-26T09:50:17.223Z,101358.04
2019-06-26T09:52:49.092Z,101362.17
2019-06-26T09:55:19.424Z,101360.91
2019-06-26T09:57:49.552Z,101359.40
2019-06-26T10:00:21.257Z,101368.98
2019-06-26T10:02:51.392Z,101368.81
2019-06-26T10:05:21.726Z,101364.56
2019-06-26T10:07:52.223Z,101358.93
2019-06-26T10:10:22.464Z,101358.63
2019-06-26T10:12:52.616Z,101362.56
2019-06-26T10:15:23.854Z,101355.56
2019-06-26T10:17:53.974Z,101351.31
2019-06-26T10:20:24.185Z,101343.23
2019-06-26T10:22:54.317Z,101337.06
2019-06-26T10:25:24.480Z,101332.27
2019-06-26T10:27:54.629Z,101341.52
2019-06-26T10:30:24.892Z,101343.02
2019-06-26T10:32:55.011Z,101332.95
2019-06-26T10:35:25.148Z,101330.22
2019-06-26T10:37:55.287Z,101333.81
2019-06-26T10:40:25.441Z,101330.09
2019-06-26T10:42:55.574Z,101334.38
2019-06-26T10:45:25.728Z,101338.50
2019-06-26T10:47:55.924Z,101341.23
2019-06-26T10:50:26.375Z,101333.02
2019-06-26T10:52:56.516Z,101327.19
2019-06-26T10:55:26.667Z,101324.80
2019-06-26T10:57:56.804Z,101312.11
2019-06-26T11:00:27.161Z,101299.08
2019-06-26T11:02:57.283Z,101310.39
2019-06-26T11:05:28.258Z,101321.37
2019-06-26T11:07:58.466Z,101312.30
2019-06-26T11:10:28.713Z,101306.45
2019-06-26T11:12:58.855Z,101307.40
2019-06-26T11:15:28.983Z,101306.14
2019-06-26T11:17:59.116Z,101303.02
2019-06-26T11:20:29.327Z,101305.61
2019-06-26T11:22:59.474Z,101294.58
2019-06-26T11:25:29.614Z,101295.05
2019-06-26T11:27:59.728Z,101288.88
2019-06-26T11:30:30.937Z,101277.70
2019-06-26T11:33:01.089Z,101283.55
2019-06-26T11:35:31.212Z,101282.22
2019-06-26T11:38:01.360Z,101291.03
2019-06-26T11:40:32.594Z,101291.31
2019-06-26T11:43:02.748Z,101289.25
2019-06-26T11:45:32.878Z,101296.45
2019-06-26T11:48:03.032Z,101301.55
2019-06-26T11:50:33.251Z,101301.06
2019-06-26T11:53:03.370Z,101264.05
2019-06-26T11:55:33.508Z,101254.24
2019-06-26T11:58:03.626Z,101247.45
2019-06-26T12:00:33.748Z,101236.88
2019-06-26T12:03:04.291Z,101223.64
2019-06-26T12:05:34.471Z,101230.52
2019-06-26T12:08:04.593Z,101239.41
2019-06-26T12:10:34.723Z,101236.59
2019-06-26T12:13:04.838Z,101244.63
2019-06-26T12:15:34.988Z,101247.36
2019-06-26T12:18:05.235Z,101253.33
2019-06-26T12:20:35.379Z,101242.17
2019-06-26T12:23:05.565Z,101245.92
2019-06-26T12:25:35.750Z,101241.35
2019-06-26T12:28:06.289Z,101248.08
2019-06-26T12:30:36.432Z,101243.64
2019-06-26T12:33:06.570Z,101246.38
2019-06-26T12:35:36.717Z,101240.36
2019-06-26T12:38:08.509Z,101236.76
2019-06-26T12:40:38.674Z,101236.73
2019-06-26T12:43:08.795Z,101236.05
2019-06-26T12:45:38.929Z,101235.66
2019-06-26T12:48:09.123Z,101230.88
2019-06-26T12:50:39.292Z,101238.55
2019-06-26T12:53:09.427Z,101237.41
2019-06-26T12:55:39.596Z,101240.31
2019-06-26T12:58:13.808Z,101235.48
2019-06-26T13:00:41.717Z,101226.59
2019-06-26T13:03:11.828Z,101208.73
2019-06-26T13:05:41.976Z,101202.72
2019-06-26T13:08:12.108Z,101197.91
2019-06-26T13:10:49.667Z,101199.20
2019-06-26T13:13:14.106Z,101197.23
2019-06-26T13:15:44.390Z,101193.26
2019-06-26T13:18:14.540Z,101185.30
2019-06-26T13:20:52.840Z,101182.59
2019-06-26T13:23:16.529Z,101186.42
2019-06-26T13:25:47.715Z,101180.97
2019-06-26T13:28:17.855Z,101181.79
2019-06-26T13:30:47.982Z,101193.14
2019-06-26T13:33:18.475Z,101186.98
2019-06-26T13:35:48.647Z,101202.41
2019-06-26T13:38:18.744Z,101187.15
2019-06-26T13:40:48.881Z,101172.98
2019-06-26T13:43:19.025Z,101181.28
2019-06-26T13:45:49.154Z,101186.27
2019-06-26T13:48:19.283Z,101184.23
2019-06-26T13:50:49.530Z,101176.44
2019-06-26T13:53:19.606Z,101172.09
2019-06-26T13:55:49.755Z,101179.11
2019-06-26T13:58:19.895Z,101175.63
2019-06-26T14:00:50.033Z,101163.55
2019-06-26T14:03:20.161Z,101160.98
2019-06-26T14:05:50.280Z,101152.16
2019-06-26T14:08:20.408Z,101152.41
2019-06-26T14:10:50.549Z,101152.06
2019-06-26T14:13:20.693Z,101153.45
2019-06-26T14:15:50.815Z,101152.41
2019-06-26T14:18:20.945Z,101147.36
2019-06-26T14:20:51.076Z,101142.03
2019-06-26T14:23:21.191Z,101140.39
2019-06-26T14:25:51.393Z,101138.42
2019-06-26T14:28:21.536Z,101136.61
2019-06-26T14:30:51.895Z,101137.41
2019-06-26T14:33:22.081Z,101134.23
2019-06-26T14:35:53.287Z,101134.61
2019-06-26T14:38:23.454Z,101130.48
2019-06-26T14:40:53.578Z,101127.98
2019-06-26T14:43:23.685Z,101133.31
2019-06-26T14:45:53.824Z,101127.22
2019-06-26T14:48:23.947Z,101122.73
2019-06-26T14:50:54.303Z,101115.97
2019-06-26T14:53:24.412Z,101116.89
2019-06-26T14:55:54.537Z,101120.22
2019-06-26T14:58:24.741Z,101119.95
2019-06-26T15:00:54.874Z,101117.38
2019-06-26T15:03:25.047Z,101115.88
2019-06-26T15:05:55.179Z,101111.05
2019-06-26T15:08:25.312Z,101102.95
2019-06-26T15:10:55.480Z,101099.80
2019-06-26T15:13:25.611Z,101100.30
2019-06-26T15:15:55.752Z,101093.49
2019-06-26T15:18:25.882Z,101093.61
2019-06-26T15:20:56.013Z,101092.05
2019-06-26T15:23:26.137Z,101088.15
2019-06-26T15:25:56.283Z,101087.64
2019-06-26T15:28:26.476Z,101095.50
2019-06-26T15:30:56.631Z,101090.81
2019-06-26T15:33:26.766Z,101096.62
2019-06-26T15:35:56.900Z,101092.56
2019-06-26T15:38:27.026Z,101093.07
2019-06-26T15:40:57.230Z,101092.98
2019-06-26T15:43:27.358Z,101095.83
2019-06-26T15:45:57.513Z,101093.64
2019-06-26T15:48:27.631Z,101088.89
2019-06-26T15:50:57.807Z,101088.47
2019-06-26T15:53:27.937Z,101085.86
2019-06-26T15:55:58.124Z,101085.70
2019-06-26T15:58:28.249Z,101082.28
2019-06-26T16:00:58.416Z,101085.73
2019-06-26T16:03:28.540Z,101078.64
2019-06-26T16:05:58.676Z,101072.48
2019-06-26T16:08:28.793Z,101070.39
2019-06-26T16:10:58.932Z,101072.00
2019-06-26T16:13:29.863Z,101066.77
2019-06-26T16:16:00.676Z,101066.77
2019-06-26T16:18:44.590Z,101064.33
2019-06-26T16:21:14.725Z,101065.41
2019-06-26T16:23:44.835Z,101060.53
2019-06-26T16:26:15.003Z,101064.66
2019-06-26T16:28:45.121Z,101061.39
2019-06-26T16:31:15.253Z,101057.83
2019-06-26T16:33:45.493Z,101054.00
2019-06-26T16:36:15.633Z,101061.88
2019-06-26T16:38:45.823Z,101063.76
2019-06-26T16:41:15.974Z,101069.93
2019-06-26T16:43:46.099Z,101072.38
2019-06-26T16:48:45.049Z,101074.41
2019-06-26T16:51:15.225Z,101066.18
2019-06-26T16:53:45.365Z,101063.81
2019-06-26T16:56:15.505Z,101064.66
2019-06-26T16:58:45.645Z,101066.48
2019-06-26T17:01:15.770Z,101058.79
2019-06-26T17:03:46.023Z,101055.64
2019-06-26T17:06:16.851Z,101047.13
2019-06-26T17:08:46.981Z,101049.32
2019-06-26T17:11:17.109Z,101042.98
2019-06-26T17:13:47.271Z,101044.08
2019-06-26T17:16:17.418Z,101044.45
2019-06-26T17:18:47.558Z,101041.23
2019-06-26T17:21:17.684Z,101038.73
2019-06-26T17:23:47.821Z,101038.34
2019-06-26T17:26:17.951Z,101034.45
2019-06-26T17:28:48.100Z,101031.38
2019-06-26T17:31:18.222Z,101032.31
2019-06-26T17:33:48.371Z,101031.14
2019-06-26T17:36:18.482Z,101028.09
2019-06-26T17:38:48.617Z,101015.33
2019-06-26T17:41:18.740Z,101015.50
2019-06-26T17:43:48.928Z,101012.31
2019-06-26T17:46:19.045Z,101005.02
2019-06-26T17:48:49.199Z,101004.89
2019-06-26T17:51:19.449Z,101003.60
2019-06-26T17:53:49.573Z,101007.08
2019-06-26T17:56:19.719Z,101007.44
2019-06-26T17:58:49.851Z,100999.78
2019-06-26T18:01:19.969Z,100996.56
2019-06-26T18:03:50.105Z,100995.88
2019-06-26T18:06:20.226Z,101004.78
2019-06-26T18:08:50.461Z,101003.27
2019-06-26T18:11:20.640Z,100996.48
2019-06-26T18:13:50.798Z,100989.50
2019-06-26T18:16:20.936Z,100993.27
2019-06-26T18:18:51.090Z,100996.52
2019-06-26T18:21:21.249Z,100997.89
2019-06-26T18:23:51.400Z,101002.84
2019-06-26T18:26:21.573Z,100998.56
2019-06-26T18:28:51.741Z,101000.09
2019-06-26T18:31:21.899Z,100998.89
2019-06-26T18:33:52.047Z,100988.48
2019-06-26T18:36:22.197Z,100989.50
2019-06-26T18:38:52.392Z,100995.30
2019-06-26T18:41:22.533Z,100997.13
2019-06-26T18:43:52.688Z,101000.70
2019-06-26T18:46:24.995Z,100998.30
2019-06-26T18:48:54.803Z,101000.67
2019-06-26T18:51:25.010Z,101005.60
2019-06-26T18:53:55.183Z,101003.34
2019-06-26T18:56:25.351Z,101009.30
2019-06-26T18:58:55.556Z,101016.92
2019-06-26T19:01:25.837Z,101022.52
2019-06-26T19:03:55.943Z,101020.76
2019-06-26T19:06:26.102Z,101018.17
2019-06-26T19:08:56.221Z,101024.61
2019-06-26T19:11:26.362Z,101026.63
2019-06-26T19:13:56.480Z,101026.73
2019-06-26T19:16:26.643Z,101017.47
2019-06-26T19:18:56.795Z,101027.34
2019-06-26T19:21:26.955Z,101019.48
2019-06-26T19:24:09.521Z,101018.94
2019-06-26T19:26:29.073Z,101013.63
2019-06-26T19:28:59.243Z,101018.89
2019-06-26T19:31:29.414Z,101021.39
2019-06-26T19:33:59.530Z,101022.22
2019-06-26T19:36:29.686Z,101019.80
2019-06-26T19:39:01.049Z,101020.63
2019-06-26T19:41:32.956Z,101015.69
2019-06-26T19:44:03.185Z,101018.73
2019-06-26T19:46:33.489Z,101017.68
2019-06-26T19:49:03.635Z,101021.58
2019-06-26T19:51:33.863Z,101022.91
2019-06-26T19:54:03.990Z,101018.41
2019-06-26T19:56:34.118Z,101019.03
2019-06-26T19:59:04.247Z,101018.61
2019-06-26T20:01:34.410Z,101014.80
2019-06-26T20:04:04.587Z,101007.41
2019-06-26T20:06:34.740Z,101006.28
2019-06-26T20:09:06.312Z,101013.36
2019-06-26T20:11:36.457Z,101011.41
2019-06-26T20:14:06.630Z,101011.17
2019-06-26T20:16:36.781Z,101007.97
2019-06-26T20:19:08.137Z,101006.72
2019-06-26T20:21:38.319Z,101004.76
2019-06-26T20:24:08.575Z,101008.39
2019-06-26T20:26:38.742Z,101005.55
2019-06-26T20:29:08.871Z,101001.98
2019-06-26T20:31:39.077Z,100995.94
2019-06-26T20:34:09.251Z,101003.54
2019-06-26T20:36:39.486Z,101002.13
2019-06-26T20:39:09.613Z,101002.13
2019-06-26T20:41:39.778Z,100989.88
2019-06-26T20:44:10.031Z,100990.89
2019-06-26T20:46:40.190Z,100994.38
2019-06-26T20:49:10.349Z,100994.98
2019-06-26T20:51:40.602Z,100987.62
2019-06-26T20:54:10.877Z,100989.93
2019-06-26T20:56:41.061Z,100998.39
2019-06-26T20:59:11.217Z,100995.61
2019-06-26T21:01:41.395Z,100994.05
2019-06-26T21:04:11.562Z,100995.10
2019-06-26T21:06:41.768Z,101002.19
2019-06-26T21:09:11.917Z,100991.47
2019-06-26T21:11:42.139Z,100992.12
2019-06-26T21:14:12.304Z,100993.48
2019-06-26T21:16:43.808Z,100994.69
2019-06-26T21:19:13.897Z,100990.26
2019-06-26T21:21:44.109Z,100989.05
2019-06-26T21:24:14.279Z,100989.11
2019-06-26T21:26:44.527Z,100984.73
2019-06-26T21:29:14.828Z,100989.16
2019-06-26T21:31:44.994Z,100984.97
2019-06-26T21:34:18.124Z,100991.88
2019-06-26T21:36:48.567Z,100994.48
2019-06-26T21:39:18.672Z,100989.84
2019-06-26T21:41:48.903Z,100984.49
2019-06-26T21:44:18.999Z,100983.98
2019-06-26T21:46:49.513Z,100979.20
2019-06-26T21:49:20.282Z,100981.27
2019-06-26T21:51:50.938Z,100977.48
2019-06-26T21:54:21.140Z,100976.34
2019-06-26T21:57:10.561Z,100981.12
2019-06-26T21:59:58.437Z,100981.19
2019-06-26T22:02:48.060Z,100980.69
2019-06-26T22:05:20.089Z,100986.91
2019-06-26T22:07:54.558Z,100986.98
2019-06-26T22:10:26.601Z,100980.45
2019-06-26T22:12:56.905Z,100982.96
2019-06-26T22:15:27.105Z,100989.31
2019-06-26T22:17:57.311Z,100995.10
2019-06-26T22:20:27.623Z,100997.20
2019-06-26T22:22:57.774Z,100998.56
2019-06-26T22:25:27.900Z,101003.70
2019-06-26T22:27:58.045Z,100998.68
2019-06-26T22:30:31.281Z,101003.85
2019-06-26T22:33:01.468Z,101006.42
2019-06-26T22:35:31.580Z,101002.20
2019-06-26T22:38:01.716Z,101000.83
2019-06-26T22:40:31.846Z,101008.19
2019-06-26T22:43:01.979Z,101011.91
2019-06-26T22:45:32.102Z,101003.61
2019-06-26T22:48:02.233Z,101005.70
2019-06-26T22:50:32.362Z,101003.20
2019-06-26T22:53:02.690Z,101003.26
2019-06-26T22:55:32.870Z,101002.34
2019-06-26T22:58:03.082Z,101003.76
2019-06-26T23:00:33.203Z,101002.05
2019-06-26T23:03:04.810Z,100997.67
2019-06-26T23:05:34.943Z,100996.81
2019-06-26T23:08:05.103Z,100997.47
2019-06-26T23:10:35.295Z,100990.17
2019-06-26T23:13:05.456Z,100994.95
2019-06-26T23:15:35.601Z,100985.83
2019-06-26T23:18:05.758Z,100990.88
2019-06-26T23:20:35.896Z,100989.61
2019-06-26T23:23:06.083Z,100992.39
2019-06-26T23:25:36.194Z,100989.40
2019-06-26T23:28:06.322Z,100994.19
2019-06-26T23:30:36.459Z,100996.84
2019-06-26T23:33:06.620Z,100996.70
2019-06-26T23:35:36.782Z,100995.19
2019-06-26T23:38:06.913Z,100992.33
2019-06-26T23:40:37.104Z,100993.63
2019-06-26T23:43:07.171Z,100997.20
2019-06-26T23:45:37.290Z,100991.47
2019-06-26T23:48:07.435Z,100993.33
2019-06-26T23:50:37.579Z,100993.06
2019-06-26T23:53:07.795Z,100996.42
2019-06-26T23:55:37.931Z,100993.80
2019-06-26T23:58:08.059Z,100991.30
